createdAt,value
2022-12-24T00:00:47.197Z,55.88
2022-12-24T00:03:19.787Z,51.45
2022-12-24T00:05:52.479Z,50.90
2022-12-24T00:08:25.115Z,54.38
2022-12-24T00:10:57.469Z,56.48
2022-12-24T00:13:29.964Z,54.63
2022-12-24T00:16:02.671Z,55.67
2022-12-24T00:18:39.938Z,57.65
2022-12-24T00:21:09.613Z,52.88
2022-12-24T00:23:42.468Z,55.55
2022-12-24T00:26:15.585Z,53.25
2022-12-24T00:28:47.997Z,55.52
2022-12-24T00:31:21.114Z,51.45
2022-12-24T00:33:53.635Z,51.68
2022-12-24T00:36:26.158Z,54.42
2022-12-24T00:38:58.514Z,50.65
2022-12-24T00:41:31.701Z,50.30
2022-12-24T00:44:06.597Z,51.33
2022-12-24T00:46:41.706Z,52.53
2022-12-24T00:51:45.886Z,52.93
2022-12-24T00:54:18.355Z,51.80
2022-12-24T00:56:50.889Z,46.08
2022-12-24T00:59:23.477Z,50.33
2022-12-24T01:01:56.086Z,50.15
2022-12-24T01:04:46.393Z,53.20
2022-12-24T01:07:19.332Z,49.35
2022-12-24T01:09:52.473Z,49.75
2022-12-24T01:12:25.521Z,47.40
2022-12-24T01:14:57.846Z,52.00
2022-12-24T01:17:31.995Z,50.05
2022-12-24T01:20:05.625Z,51.18
2022-12-24T01:22:38.019Z,51.47
2022-12-24T01:25:11.052Z,49.27
2022-12-24T01:27:43.478Z,49.95
2022-12-24T01:30:16.039Z,50.67
2022-12-24T01:32:48.575Z,49.67
2022-12-24T01:35:21.130Z,51.20
2022-12-24T01:37:53.640Z,51.40
2022-12-24T01:40:45.175Z,50.90
2022-12-24T01:43:26.564Z,47.00
2022-12-24T01:46:08.157Z,47.33
2022-12-24T01:48:44.691Z,48.38
2022-12-24T01:51:43.975Z,46.92
2022-12-24T01:54:23.947Z,50.23
2022-12-24T01:57:06.333Z,49.08
2022-12-24T01:59:39.272Z,46.70
2022-12-24T02:02:11.744Z,47.03
2022-12-24T02:05:03.333Z,46.15
2022-12-24T02:07:36.167Z,47.53
2022-12-24T02:10:10.988Z,45.33
2022-12-24T02:12:43.934Z,45.95
2022-12-24T02:15:17.969Z,46.28
2022-12-24T02:18:18.038Z,46.00
2022-12-24T02:21:13.423Z,43.55
2022-12-24T02:24:29.453Z,42.83
2022-12-24T02:27:34.054Z,42.90
2022-12-24T02:30:32.863Z,40.28
2022-12-24T02:33:33.972Z,41.45
2022-12-24T02:36:13.185Z,41.92
2022-12-24T02:38:56.106Z,40.63
2022-12-24T02:41:33.181Z,41.83
2022-12-24T02:44:05.667Z,41.25
2022-12-24T02:46:38.140Z,40.05
2022-12-24T02:49:10.960Z,40.85
2022-12-24T02:51:43.357Z,37.98
2022-12-24T02:54:15.720Z,38.53
2022-12-24T02:57:23.721Z,40.08
2022-12-24T03:00:08.997Z,37.63
2022-12-24T03:02:52.143Z,36.05
2022-12-24T03:05:33.972Z,37.78
2022-12-24T03:08:30.475Z,38.65
2022-12-24T03:11:10.751Z,38.88
2022-12-24T03:13:44.080Z,36.80
2022-12-24T03:16:19.309Z,39.35
2022-12-24T03:18:51.906Z,37.88
2022-12-24T03:21:32.129Z,39.78
2022-12-24T03:24:04.691Z,38.17
2022-12-24T03:26:37.120Z,40.95
2022-12-24T03:29:10.107Z,40.05
2022-12-24T03:31:44.835Z,37.85
2022-12-24T03:34:17.444Z,39.83
2022-12-24T03:36:50.065Z,39.53
2022-12-24T03:39:23.326Z,40.58
2022-12-24T03:41:55.950Z,39.40
2022-12-24T03:44:28.582Z,40.45
2022-12-24T03:47:00.982Z,38.83
2022-12-24T03:49:33.672Z,40.33
2022-12-24T03:52:06.684Z,42.00
2022-12-24T03:54:39.269Z,42.58
2022-12-24T03:57:11.727Z,42.88
2022-12-24T03:59:44.663Z,41.77
2022-12-24T04:02:17.419Z,42.45
2022-12-24T04:04:50.024Z,43.98
2022-12-24T04:07:22.640Z,41.23
2022-12-24T04:09:55.595Z,43.15
2022-12-24T04:12:28.400Z,41.90
2022-12-24T04:15:00.791Z,40.50
2022-12-24T04:17:34.552Z,41.58
2022-12-24T04:20:08.328Z,40.55
2022-12-24T04:22:42.248Z,38.38
2022-12-24T04:25:15.612Z,38.42
2022-12-24T04:27:48.303Z,38.45
2022-12-24T04:30:20.852Z,37.93
2022-12-24T04:32:53.358Z,38.20
2022-12-24T04:35:25.768Z,39.23
2022-12-24T04:37:58.153Z,36.15
2022-12-24T04:40:30.859Z,36.98
2022-12-24T04:43:03.232Z,37.30
2022-12-24T04:45:36.387Z,37.83
2022-12-24T04:48:08.835Z,37.03
2022-12-24T04:50:41.735Z,39.58
2022-12-24T04:53:15.989Z,36.08
2022-12-24T04:55:48.476Z,38.05
2022-12-24T04:58:21.504Z,39.63
2022-12-24T05:00:54.076Z,37.40
2022-12-24T05:03:26.603Z,38.35
2022-12-24T05:06:12.110Z,40.20
2022-12-24T05:08:44.876Z,38.67
2022-12-24T05:11:17.540Z,38.00
2022-12-24T05:13:50.189Z,38.30
2022-12-24T05:16:23.137Z,37.93
2022-12-24T05:18:55.567Z,38.63
2022-12-24T05:21:28.095Z,38.45
2022-12-24T05:24:18.533Z,37.90
2022-12-24T05:26:55.145Z,35.83
2022-12-24T05:29:28.020Z,38.42
2022-12-24T05:32:00.497Z,39.55
2022-12-24T05:34:32.940Z,41.05
2022-12-24T05:37:05.282Z,40.63
2022-12-24T05:39:38.476Z,41.42
2022-12-24T05:42:10.923Z,39.13
2022-12-24T05:44:43.352Z,39.50
2022-12-24T05:47:16.855Z,40.05
2022-12-24T05:49:49.201Z,38.15
2022-12-24T05:52:22.253Z,42.90
2022-12-24T05:54:54.742Z,39.55
2022-12-24T05:57:27.178Z,37.75
2022-12-24T05:59:59.503Z,39.27
2022-12-24T06:02:32.040Z,40.30
2022-12-24T06:05:04.759Z,42.25
2022-12-24T06:07:37.339Z,41.23
2022-12-24T06:10:10.646Z,39.10
2022-12-24T06:12:43.487Z,39.48
2022-12-24T06:15:21.942Z,39.88
2022-12-24T06:17:50.058Z,38.83
2022-12-24T06:20:22.463Z,38.48
2022-12-24T06:22:55.161Z,39.05
2022-12-24T06:25:27.539Z,38.28
2022-12-24T06:28:00.076Z,38.40
2022-12-24T06:30:32.644Z,41.77
2022-12-24T06:33:05.375Z,39.45
2022-12-24T06:35:38.085Z,39.45
2022-12-24T06:38:10.945Z,40.05
2022-12-24T06:40:44.678Z,38.33
2022-12-24T06:43:18.406Z,39.40
2022-12-24T06:45:50.850Z,38.40
2022-12-24T06:48:23.308Z,40.28
2022-12-24T06:50:55.613Z,40.00
2022-12-24T06:53:28.028Z,39.92
2022-12-24T06:56:08.173Z,41.35
2022-12-24T06:58:40.877Z,40.67
2022-12-24T07:01:15.765Z,38.25
2022-12-24T07:03:48.296Z,39.23
2022-12-24T07:06:26.843Z,38.50
2022-12-24T07:08:59.359Z,39.58
2022-12-24T07:11:31.903Z,40.75
2022-12-24T07:14:04.716Z,41.53
2022-12-24T07:16:37.211Z,42.75
2022-12-24T07:19:09.753Z,40.17
2022-12-24T07:21:42.229Z,42.05
2022-12-24T07:24:14.837Z,40.05
2022-12-24T07:26:47.193Z,40.60
2022-12-24T07:29:19.754Z,44.13
2022-12-24T07:31:52.229Z,45.12
2022-12-24T07:34:25.454Z,43.87
2022-12-24T07:36:58.182Z,41.15
2022-12-24T07:39:30.707Z,42.05
2022-12-24T07:42:04.875Z,43.05
2022-12-24T07:44:38.292Z,42.62
2022-12-24T07:47:10.736Z,44.42
2022-12-24T07:49:43.133Z,44.40
2022-12-24T07:52:15.571Z,42.62
2022-12-24T07:54:48.446Z,44.45
2022-12-24T07:57:20.957Z,41.58
2022-12-24T07:59:53.466Z,42.17
2022-12-24T08:02:26.059Z,41.60
2022-12-24T08:04:58.667Z,45.45
2022-12-24T08:07:31.027Z,46.28
2022-12-24T08:10:03.502Z,43.48
2022-12-24T08:12:36.040Z,42.73
2022-12-24T08:15:09.461Z,41.95
2022-12-24T08:17:41.882Z,40.58
2022-12-24T08:20:16.181Z,43.48
2022-12-24T08:22:48.691Z,42.10
2022-12-24T08:25:21.779Z,43.55
2022-12-24T08:27:54.313Z,44.40
2022-12-24T08:30:26.709Z,45.30
2022-12-24T08:33:00.065Z,46.45
2022-12-24T08:35:32.638Z,46.55
2022-12-24T08:38:05.348Z,45.98
2022-12-24T08:40:37.798Z,47.67
2022-12-24T08:43:10.282Z,45.15
2022-12-24T08:45:42.960Z,46.53
2022-12-24T08:48:15.449Z,44.25
2022-12-24T08:50:48.012Z,45.45
2022-12-24T08:53:21.766Z,44.80
2022-12-24T08:55:56.337Z,45.83
2022-12-24T08:58:28.969Z,43.65
2022-12-24T09:01:01.596Z,44.93
2022-12-24T09:03:34.322Z,47.60
2022-12-24T09:06:08.027Z,43.95
2022-12-24T09:08:40.804Z,43.95
2022-12-24T09:11:17.983Z,45.30
2022-12-24T09:13:50.679Z,45.98
2022-12-24T09:16:23.129Z,44.75
2022-12-24T09:18:55.559Z,45.20
2022-12-24T09:21:28.386Z,47.05
2022-12-24T09:24:01.407Z,45.83
2022-12-24T09:26:34.183Z,44.45
2022-12-24T09:29:06.476Z,46.33
2022-12-24T09:31:39.918Z,47.45
2022-12-24T09:34:12.351Z,47.65
2022-12-24T09:36:46.336Z,50.45
2022-12-24T09:39:18.926Z,48.80
2022-12-24T09:42:25.383Z,48.95
2022-12-24T09:45:17.581Z,45.33
2022-12-24T09:47:56.224Z,45.55
2022-12-24T09:50:42.264Z,46.40
2022-12-24T09:53:22.229Z,48.25
2022-12-24T09:55:58.364Z,48.23
2022-12-24T09:58:40.953Z,52.15
2022-12-24T10:01:17.923Z,50.83
2022-12-24T10:03:50.357Z,49.33
2022-12-24T10:06:33.030Z,50.05
2022-12-24T10:09:10.752Z,48.05
2022-12-24T10:12:04.256Z,48.28
2022-12-24T10:15:09.786Z,50.78
2022-12-24T10:17:55.768Z,52.88
2022-12-24T10:20:44.987Z,50.83
2022-12-24T10:23:31.884Z,50.12
2022-12-24T10:26:21.093Z,48.23
2022-12-24T10:29:11.642Z,49.48
2022-12-24T10:32:10.529Z,49.75
2022-12-24T10:34:49.441Z,51.23
2022-12-24T10:37:26.488Z,52.80
2022-12-24T10:40:00.216Z,52.08
2022-12-24T10:42:53.723Z,49.70
2022-12-24T10:45:30.506Z,50.28
2022-12-24T10:48:12.084Z,52.58
2022-12-24T10:51:05.728Z,53.85
2022-12-24T10:54:00.553Z,51.80
2022-12-24T10:56:33.342Z,57.55
2022-12-24T10:59:05.788Z,52.38
2022-12-24T11:01:47.272Z,54.45
2022-12-24T11:04:32.621Z,51.45
2022-12-24T11:07:07.809Z,52.98
2022-12-24T11:09:43.516Z,54.10
2022-12-24T11:12:28.446Z,51.77
2022-12-24T11:15:05.037Z,51.95
2022-12-24T11:17:37.693Z,52.15
2022-12-24T11:20:21.708Z,47.67
2022-12-24T11:22:54.568Z,48.23
2022-12-24T11:25:31.926Z,50.15
2022-12-24T11:28:13.921Z,51.08
2022-12-24T11:31:06.975Z,51.45
2022-12-24T11:33:53.525Z,51.25
2022-12-24T11:36:27.774Z,51.95
2022-12-24T11:39:00.574Z,49.45
2022-12-24T11:41:39.705Z,50.80
2022-12-24T11:44:12.770Z,51.48
2022-12-24T11:46:47.364Z,50.35
2022-12-24T11:52:20.091Z,51.37
2022-12-24T11:55:24.055Z,52.50
2022-12-24T11:58:19.244Z,50.00
2022-12-24T12:00:52.682Z,49.45
2022-12-24T12:03:48.025Z,48.90
2022-12-24T12:06:28.852Z,50.40
2022-12-24T12:09:07.981Z,52.25
2022-12-24T12:11:41.513Z,53.58
2022-12-24T12:14:30.887Z,54.60
2022-12-24T12:17:19.839Z,49.40
2022-12-24T12:20:12.476Z,48.48
2022-12-24T12:23:11.051Z,49.30
2022-12-24T12:25:57.432Z,52.83
2022-12-24T12:29:07.045Z,51.35
2022-12-24T12:31:45.917Z,53.92
2022-12-24T12:34:33.942Z,51.08
2022-12-24T12:37:18.526Z,50.78
2022-12-24T12:39:50.893Z,52.98
2022-12-24T12:42:38.255Z,53.95
2022-12-24T12:45:38.136Z,54.73
2022-12-24T12:48:18.600Z,51.73
2022-12-24T12:51:09.975Z,53.15
2022-12-24T12:54:16.475Z,50.28
2022-12-24T12:56:52.489Z,50.52
2022-12-24T12:59:33.747Z,53.08
2022-12-24T13:02:42.803Z,54.65
2022-12-24T13:05:53.165Z,53.73
2022-12-24T13:09:11.505Z,53.17
2022-12-24T13:12:08.360Z,55.48
2022-12-24T13:15:14.594Z,56.37
2022-12-24T13:17:54.680Z,57.30
2022-12-24T13:20:34.517Z,57.55
2022-12-24T13:23:17.006Z,57.45
2022-12-24T13:25:52.529Z,56.42
2022-12-24T13:28:29.744Z,56.48
2022-12-24T13:31:23.686Z,57.25
2022-12-24T13:33:58.767Z,55.63
2022-12-24T13:36:58.665Z,59.70
2022-12-24T13:39:31.755Z,59.30
2022-12-24T13:42:04.100Z,57.83
2022-12-24T13:44:36.444Z,56.70
2022-12-24T13:47:25.345Z,58.70
2022-12-24T13:49:55.460Z,58.23
2022-12-24T13:52:30.953Z,62.58
2022-12-24T13:55:15.821Z,61.90
2022-12-24T13:58:05.202Z,63.55
2022-12-24T14:00:55.632Z,56.00
2022-12-24T14:03:40.440Z,59.40
2022-12-24T14:06:28.638Z,57.90
2022-12-24T14:09:11.049Z,60.33
2022-12-24T14:12:06.753Z,61.63
2022-12-24T14:14:42.254Z,61.45
2022-12-24T14:17:29.970Z,63.15
2022-12-24T14:20:03.255Z,58.60
2022-12-24T14:22:42.203Z,61.37
2022-12-24T14:25:23.240Z,60.08
2022-12-24T14:28:07.716Z,58.13
2022-12-24T14:30:40.082Z,58.80
2022-12-24T14:33:33.471Z,60.20
2022-12-24T14:36:06.166Z,65.92
2022-12-24T14:38:40.738Z,59.13
2022-12-24T14:41:33.328Z,57.93
2022-12-24T14:44:35.647Z,59.20
2022-12-24T14:47:22.374Z,62.90
2022-12-24T14:50:37.834Z,61.18
2022-12-24T14:53:48.985Z,61.80
2022-12-24T14:56:24.008Z,58.52
2022-12-24T14:58:58.425Z,56.55
2022-12-24T15:01:34.361Z,53.95
2022-12-24T15:04:13.775Z,57.50
2022-12-24T15:06:53.251Z,59.50
2022-12-24T15:09:29.781Z,61.70
2022-12-24T15:12:04.546Z,60.67
2022-12-24T15:14:41.942Z,59.53
2022-12-24T15:17:16.525Z,59.88
2022-12-24T15:22:31.159Z,50.20
2022-12-24T15:25:03.763Z,51.33
2022-12-24T15:27:37.745Z,56.48
2022-12-24T15:30:20.338Z,56.90
2022-12-24T15:32:57.229Z,59.60
2022-12-24T15:35:50.208Z,70.08
2022-12-24T15:38:34.233Z,117.10
2022-12-24T15:41:27.664Z,62.75
2022-12-24T15:44:04.454Z,58.17
2022-12-24T15:46:37.606Z,59.20
2022-12-24T15:49:14.457Z,60.75
2022-12-24T15:51:46.874Z,86.10
2022-12-24T15:54:22.306Z,70.50
2022-12-24T15:56:54.634Z,63.87
2022-12-24T15:59:38.643Z,64.62
2022-12-24T16:02:45.560Z,62.65
2022-12-24T16:05:34.104Z,65.05
2022-12-24T16:08:20.858Z,68.80
2022-12-24T16:11:09.867Z,60.85
2022-12-24T16:14:13.972Z,65.50
2022-12-24T16:16:52.950Z,64.67
2022-12-24T16:19:40.054Z,165.40
2022-12-24T16:22:26.707Z,73.17
2022-12-24T16:25:00.652Z,63.52
2022-12-24T16:30:05.428Z,58.70
2022-12-24T16:32:38.481Z,60.73
2022-12-24T16:35:29.973Z,59.93
2022-12-24T16:38:02.370Z,62.35
2022-12-24T16:40:34.894Z,60.85
2022-12-24T16:43:25.162Z,62.38
2022-12-24T16:46:03.474Z,63.40
2022-12-24T16:48:37.400Z,57.43
2022-12-24T16:51:10.075Z,64.65
2022-12-24T16:53:42.847Z,57.75
2022-12-24T16:56:16.925Z,57.90
2022-12-24T16:58:49.348Z,55.03
2022-12-24T17:01:22.254Z,56.35
2022-12-24T17:03:55.434Z,55.08
2022-12-24T17:06:28.066Z,55.20
2022-12-24T17:09:01.489Z,57.78
2022-12-24T17:11:35.067Z,56.23
2022-12-24T17:14:08.963Z,59.33
2022-12-24T17:16:42.097Z,55.43
2022-12-24T17:19:14.462Z,59.77
2022-12-24T17:21:48.956Z,54.80
2022-12-24T17:24:21.294Z,56.37
2022-12-24T17:26:54.216Z,57.20
2022-12-24T17:29:26.696Z,55.23
2022-12-24T17:31:59.125Z,54.33
2022-12-24T17:34:31.416Z,58.80
2022-12-24T17:37:04.218Z,57.23
2022-12-24T17:39:36.618Z,56.70
2022-12-24T17:42:09.027Z,59.42
2022-12-24T17:44:41.594Z,58.45
2022-12-24T17:47:14.307Z,59.15
2022-12-24T17:49:46.817Z,59.45
2022-12-24T17:52:19.347Z,58.80
2022-12-24T17:54:51.933Z,59.95
2022-12-24T17:57:24.430Z,61.37
2022-12-24T17:59:57.639Z,67.72
2022-12-24T18:02:30.479Z,66.75
2022-12-24T18:05:04.575Z,69.32
2022-12-24T18:07:37.626Z,67.95
2022-12-24T18:10:11.667Z,65.28
2022-12-24T18:12:45.423Z,68.15
2022-12-24T18:15:22.844Z,65.90
2022-12-24T18:17:56.179Z,63.98
2022-12-24T18:20:28.615Z,62.83
2022-12-24T18:23:01.126Z,64.87
2022-12-24T18:25:33.516Z,64.92
2022-12-24T18:28:06.248Z,63.52
2022-12-24T18:30:38.826Z,66.70
2022-12-24T18:33:11.311Z,68.50
2022-12-24T18:35:43.854Z,70.35
2022-12-24T18:38:17.250Z,70.08
2022-12-24T18:40:49.792Z,70.35
2022-12-24T18:43:22.787Z,119.10
2022-12-24T18:45:55.534Z,85.15
2022-12-24T18:48:28.186Z,74.42
2022-12-24T18:51:01.513Z,71.85
2022-12-24T18:53:34.306Z,69.12
2022-12-24T18:56:09.113Z,69.00
2022-12-24T18:58:42.457Z,68.45
2022-12-24T19:01:21.646Z,66.55
2022-12-24T19:03:54.214Z,69.32
2022-12-24T19:06:27.691Z,70.08
2022-12-24T19:09:01.498Z,67.80
2022-12-24T19:11:35.235Z,66.57
2022-12-24T19:14:08.478Z,66.62
2022-12-24T19:16:41.990Z,67.40
2022-12-24T19:19:14.473Z,68.62
2022-12-24T19:21:47.530Z,66.50
2022-12-24T19:24:20.546Z,67.35
2022-12-24T19:26:52.925Z,68.67
2022-12-24T19:29:25.878Z,63.17
2022-12-24T19:31:58.374Z,66.17
2022-12-24T19:34:30.887Z,67.08
2022-12-24T19:37:03.772Z,65.00
2022-12-24T19:39:37.027Z,65.50
2022-12-24T19:42:09.526Z,66.87
2022-12-24T19:44:42.039Z,62.67
2022-12-24T19:47:14.345Z,62.10
2022-12-24T19:49:46.740Z,66.40
2022-12-24T19:52:19.238Z,74.05
2022-12-24T19:54:51.872Z,64.05
2022-12-24T19:57:24.286Z,62.35
2022-12-24T19:59:57.344Z,62.75
2022-12-24T20:02:29.924Z,64.82
2022-12-24T20:05:02.398Z,64.72
2022-12-24T20:07:35.647Z,68.70
2022-12-24T20:10:09.507Z,68.85
2022-12-24T20:12:42.315Z,65.62
2022-12-24T20:15:14.616Z,65.47
2022-12-24T20:17:48.667Z,64.70
2022-12-24T20:20:22.260Z,67.75
2022-12-24T20:22:54.543Z,69.30
2022-12-24T20:25:26.895Z,65.40
2022-12-24T20:27:59.908Z,63.30
2022-12-24T20:30:32.729Z,65.62
2022-12-24T20:33:05.324Z,63.68
2022-12-24T20:35:38.882Z,65.83
2022-12-24T20:38:11.542Z,67.15
2022-12-24T20:40:47.153Z,66.17
2022-12-24T20:43:24.109Z,64.77
2022-12-24T20:45:56.943Z,65.50
2022-12-24T20:48:31.267Z,65.17
2022-12-24T20:51:25.570Z,66.07
2022-12-24T20:54:00.393Z,67.43
2022-12-24T20:56:33.000Z,64.42
2022-12-24T20:59:05.437Z,62.70
2022-12-24T21:01:39.076Z,64.97
2022-12-24T21:04:12.483Z,61.48
2022-12-24T21:06:45.086Z,65.90
2022-12-24T21:09:17.893Z,67.55
2022-12-24T21:11:50.441Z,62.05
2022-12-24T21:14:25.507Z,63.60
2022-12-24T21:16:58.483Z,63.92
2022-12-24T21:19:30.866Z,66.97
2022-12-24T21:22:04.580Z,67.15
2022-12-24T21:24:37.684Z,63.35
2022-12-24T21:27:10.624Z,59.75
2022-12-24T21:29:43.027Z,59.90
2022-12-24T21:32:15.543Z,63.13
2022-12-24T21:34:48.283Z,63.73
2022-12-24T21:37:21.554Z,61.60
2022-12-24T21:39:53.967Z,64.92
2022-12-24T21:42:26.715Z,61.25
2022-12-24T21:44:59.327Z,59.95
2022-12-24T21:47:31.837Z,63.00
2022-12-24T21:50:26.718Z,60.83
2022-12-24T21:52:58.466Z,60.90
2022-12-24T21:58:02.945Z,62.13
2022-12-24T22:00:37.045Z,61.18
2022-12-24T22:03:09.644Z,59.05
2022-12-24T22:05:42.464Z,58.38
2022-12-24T22:08:34.029Z,59.38
2022-12-24T22:11:24.975Z,56.05
2022-12-24T22:13:57.520Z,55.15
2022-12-24T22:16:30.502Z,54.48
2022-12-24T22:19:03.023Z,55.17
2022-12-24T22:21:36.607Z,56.40
2022-12-24T22:24:30.715Z,54.80
2022-12-24T22:27:04.101Z,55.00
2022-12-24T22:29:36.503Z,54.05
2022-12-24T22:32:08.967Z,55.52
2022-12-24T22:34:41.508Z,54.93
2022-12-24T22:37:13.945Z,53.17
2022-12-24T22:39:46.648Z,52.43
2022-12-24T22:42:19.253Z,52.85
2022-12-24T22:44:51.626Z,53.42
2022-12-24T22:47:24.686Z,51.80
2022-12-24T22:49:57.192Z,53.52
2022-12-24T22:52:29.563Z,52.23
2022-12-24T22:55:02.523Z,53.98
2022-12-24T22:57:35.141Z,53.75
2022-12-24T23:00:15.534Z,52.40
2022-12-24T23:02:48.266Z,52.45
2022-12-24T23:05:20.921Z,52.08
2022-12-24T23:07:53.759Z,50.83
2022-12-24T23:10:26.361Z,51.00
2022-12-24T23:13:16.640Z,49.70
2022-12-24T23:15:49.106Z,50.08
2022-12-24T23:18:21.560Z,48.20
2022-12-24T23:20:53.989Z,48.68
2022-12-24T23:23:29.641Z,48.15
2022-12-24T23:26:06.431Z,51.20
2022-12-24T23:28:39.668Z,48.40
2022-12-24T23:31:13.101Z,46.70
2022-12-24T23:33:45.620Z,47.98
2022-12-24T23:36:18.211Z,45.28
2022-12-24T23:38:51.590Z,45.20
2022-12-24T23:41:24.796Z,46.25
2022-12-24T23:43:57.308Z,48.15
2022-12-24T23:46:30.409Z,44.35
2022-12-24T23:49:03.246Z,44.55
2022-12-24T23:51:35.669Z,45.98
2022-12-24T23:54:08.224Z,43.80
2022-12-24T23:56:41.067Z,43.90
2022-12-24T23:59:13.813Z,42.35
